createdAt,value
2022-11-12T00:01:16.969Z,11.38
2022-11-12T00:06:38.812Z,11.28
2022-11-12T00:12:00.671Z,11.35
2022-11-12T00:17:22.518Z,11.35
2022-11-12T00:22:44.762Z,11.29
2022-11-12T00:28:09.753Z,11.27
2022-11-12T00:33:31.745Z,11.31
2022-11-12T00:38:53.576Z,11.37
2022-11-12T00:44:15.429Z,11.34
2022-11-12T00:49:37.347Z,11.40
2022-11-12T00:54:59.173Z,11.43
2022-11-12T01:00:21.165Z,11.38
2022-11-12T01:05:42.961Z,11.32
2022-11-12T01:11:07.086Z,11.39
2022-11-12T01:16:31.394Z,11.32
2022-11-12T01:21:53.209Z,11.39
2022-11-12T01:27:15.104Z,11.39
2022-11-12T01:32:37.122Z,11.36
2022-11-12T01:37:58.959Z,11.43
2022-11-12T01:43:20.765Z,11.29
2022-11-12T01:48:59.698Z,11.34
2022-11-12T01:54:22.589Z,11.32
2022-11-12T01:59:47.988Z,11.36
2022-11-12T02:05:11.244Z,11.26
2022-11-12T02:10:34.801Z,11.26
2022-11-12T02:15:56.611Z,11.28
2022-11-12T02:21:20.302Z,11.23
2022-11-12T02:26:46.055Z,11.24
2022-11-12T02:32:07.913Z,11.17
2022-11-12T02:37:29.709Z,11.13
2022-11-12T02:42:51.574Z,11.10
2022-11-12T02:48:18.953Z,11.14
2022-11-12T02:53:41.629Z,11.09
2022-11-12T02:59:03.596Z,11.14
2022-11-12T03:04:25.459Z,11.14
2022-11-12T03:09:47.912Z,11.09
2022-11-12T03:15:10.088Z,11.21
2022-11-12T03:20:31.922Z,11.24
2022-11-12T03:25:53.945Z,11.20
2022-11-12T03:31:15.792Z,11.30
2022-11-12T03:36:37.651Z,11.20
2022-11-12T03:41:59.500Z,11.11
2022-11-12T03:47:21.356Z,11.15
2022-11-12T03:52:47.597Z,11.07
2022-11-12T03:58:09.406Z,10.94
2022-11-12T04:03:31.232Z,10.94
2022-11-12T04:08:53.013Z,10.95
2022-11-12T04:14:14.797Z,10.93
2022-11-12T04:19:36.628Z,10.95
2022-11-12T04:24:58.444Z,10.85
2022-11-12T04:30:20.297Z,10.91
2022-11-12T04:35:42.116Z,10.84
2022-11-12T04:41:03.914Z,10.81
2022-11-12T04:46:25.718Z,10.66
2022-11-12T04:51:47.537Z,10.62
2022-11-12T04:57:09.640Z,10.73
2022-11-12T05:02:31.514Z,10.79
2022-11-12T05:07:53.321Z,10.58
2022-11-12T05:13:15.115Z,10.54
2022-11-12T05:18:36.893Z,10.58
2022-11-12T05:23:58.772Z,10.51
2022-11-12T05:29:20.619Z,10.48
2022-11-12T05:34:42.772Z,10.48
2022-11-12T05:40:05.118Z,10.43
2022-11-12T05:45:26.950Z,10.52
2022-11-12T05:51:11.928Z,10.51
2022-11-12T05:56:35.602Z,10.47
2022-11-12T06:01:57.407Z,10.42
2022-11-12T06:07:19.321Z,10.27
2022-11-12T06:12:41.436Z,10.20
2022-11-12T06:18:03.343Z,10.08
2022-11-12T06:23:25.125Z,9.97
2022-11-12T06:28:47.804Z,10.00
2022-11-12T06:34:09.642Z,10.00
2022-11-12T06:39:32.625Z,9.96
2022-11-12T06:44:54.466Z,9.74
2022-11-12T06:50:16.377Z,9.83
2022-11-12T06:55:38.181Z,9.61
2022-11-12T07:01:10.965Z,9.70
2022-11-12T07:06:34.387Z,9.57
2022-11-12T07:11:56.316Z,9.64
2022-11-12T07:17:18.224Z,9.72
2022-11-12T07:22:40.059Z,9.52
2022-11-12T07:28:01.878Z,9.34
2022-11-12T07:33:23.897Z,9.42
2022-11-12T07:38:46.228Z,9.68
2022-11-12T07:44:08.066Z,9.59
2022-11-12T07:49:29.983Z,9.74
2022-11-12T07:54:51.918Z,9.80
2022-11-12T08:00:14.547Z,9.67
2022-11-12T08:05:36.323Z,9.71
2022-11-12T08:10:59.622Z,9.67
2022-11-12T08:16:21.554Z,9.87
2022-11-12T08:21:43.379Z,9.89
2022-11-12T08:27:05.226Z,9.94
2022-11-12T08:32:27.413Z,9.99
2022-11-12T08:37:49.315Z,10.11
2022-11-12T08:43:11.522Z,10.21
2022-11-12T08:48:34.334Z,10.11
2022-11-12T08:53:56.173Z,10.27
2022-11-12T08:59:17.952Z,10.20
2022-11-12T09:04:39.761Z,10.22
2022-11-12T09:10:01.695Z,10.33
2022-11-12T09:15:40.213Z,10.40
2022-11-12T09:21:08.387Z,10.13
2022-11-12T09:26:30.168Z,10.19
2022-11-12T09:31:52.022Z,10.27
2022-11-12T09:37:13.927Z,10.29
2022-11-12T09:42:36.767Z,10.31
2022-11-12T09:48:05.940Z,10.31
2022-11-12T09:53:56.427Z,10.36
2022-11-12T09:59:19.302Z,10.37
2022-11-12T10:04:51.454Z,10.40
2022-11-12T10:10:19.067Z,10.50
2022-11-12T10:15:53.887Z,10.54
2022-11-12T10:21:24.444Z,10.44
2022-11-12T10:26:46.721Z,10.45
2022-11-12T10:32:15.121Z,10.41
2022-11-12T10:37:42.740Z,10.53
2022-11-12T10:43:25.582Z,10.49
2022-11-12T10:48:57.197Z,10.62
2022-11-12T10:54:27.775Z,10.64
2022-11-12T11:00:12.288Z,10.65
2022-11-12T11:05:35.575Z,10.60
2022-11-12T11:11:28.161Z,10.52
2022-11-12T11:16:53.154Z,10.49
2022-11-12T11:22:27.312Z,10.50
2022-11-12T11:28:15.028Z,10.45
2022-11-12T11:34:02.591Z,10.50
2022-11-12T11:39:44.612Z,10.45
2022-11-12T11:45:16.238Z,10.43
2022-11-12T11:50:54.705Z,10.43
2022-11-12T11:56:40.072Z,10.33
2022-11-12T12:02:17.630Z,10.39
2022-11-12T12:07:58.978Z,10.48
2022-11-12T12:14:00.710Z,10.46
2022-11-12T12:19:25.584Z,10.44
2022-11-12T12:24:54.856Z,10.51
2022-11-12T12:30:22.765Z,10.49
2022-11-12T12:35:54.960Z,10.51
2022-11-12T12:41:26.858Z,10.54
2022-11-12T12:46:54.892Z,10.43
2022-11-12T12:52:16.946Z,10.52
2022-11-12T12:57:39.827Z,10.57
2022-11-12T13:03:02.071Z,10.64
2022-11-12T13:08:26.181Z,10.71
2022-11-12T13:13:48.266Z,10.74
2022-11-12T13:19:10.114Z,10.82
2022-11-12T13:25:26.105Z,10.83
2022-11-12T13:30:47.839Z,10.82
2022-11-12T13:36:27.857Z,10.85
2022-11-12T13:41:59.377Z,10.84
2022-11-12T13:47:22.477Z,10.83
2022-11-12T13:52:46.087Z,10.70
2022-11-12T13:58:19.939Z,10.73
2022-11-12T14:03:48.603Z,10.78
2022-11-12T14:09:13.349Z,10.77
2022-11-12T14:15:12.504Z,10.61
2022-11-12T14:20:40.271Z,10.53
2022-11-12T14:26:02.111Z,10.64
2022-11-12T14:31:25.248Z,10.65
2022-11-12T14:36:47.717Z,10.61
2022-11-12T14:42:15.138Z,10.61
2022-11-12T14:47:36.987Z,10.57
2022-11-12T14:53:09.625Z,10.64
2022-11-12T14:58:33.254Z,10.62
2022-11-12T15:04:10.981Z,10.64
2022-11-12T15:09:35.241Z,10.70
2022-11-12T15:15:26.509Z,10.73
2022-11-12T15:21:27.909Z,10.69
2022-11-12T15:26:50.428Z,10.65
2022-11-12T15:32:14.018Z,10.61
2022-11-12T15:37:42.336Z,10.61
2022-11-12T15:43:14.411Z,10.71
2022-11-12T15:48:36.233Z,10.58
2022-11-12T15:53:58.001Z,10.65
2022-11-12T15:59:19.821Z,10.79
2022-11-12T16:04:41.613Z,10.70
2022-11-12T16:10:03.612Z,10.79
2022-11-12T16:15:25.655Z,10.78
2022-11-12T16:20:48.025Z,10.80
2022-11-12T16:26:14.681Z,10.79
2022-11-12T16:31:36.503Z,10.35
2022-11-12T16:36:58.690Z,10.73
2022-11-12T16:42:20.504Z,10.83
2022-11-12T16:47:49.903Z,10.76
2022-11-12T16:53:12.045Z,10.59
2022-11-12T16:58:33.811Z,10.79
2022-11-12T17:03:56.834Z,10.79
2022-11-12T17:09:18.609Z,10.78
2022-11-12T17:14:40.388Z,10.73
2022-11-12T17:20:02.239Z,10.87
2022-11-12T17:25:24.012Z,10.79
2022-11-12T17:30:45.787Z,10.83
2022-11-12T17:36:09.917Z,10.97
2022-11-12T17:41:31.810Z,10.83
2022-11-12T17:46:53.670Z,10.69
2022-11-12T17:52:15.533Z,10.63
2022-11-12T17:57:37.460Z,10.61
2022-11-12T18:02:59.356Z,10.70
2022-11-12T18:08:21.178Z,10.56
2022-11-12T18:13:42.976Z,10.70
2022-11-12T18:19:05.093Z,10.53
2022-11-12T18:24:26.897Z,10.64
2022-11-12T18:29:48.665Z,10.59
2022-11-12T18:35:10.452Z,10.60
2022-11-12T18:40:32.254Z,10.56
2022-11-12T18:45:57.972Z,10.63
2022-11-12T18:51:20.202Z,10.73
2022-11-12T18:56:42.302Z,10.83
2022-11-12T19:02:04.183Z,10.83
2022-11-12T19:07:26.084Z,10.78
2022-11-12T19:12:47.862Z,10.86
2022-11-12T19:18:09.647Z,10.90
2022-11-12T19:23:31.727Z,10.65
2022-11-12T19:28:54.036Z,10.60
2022-11-12T19:34:15.846Z,10.57
2022-11-12T19:39:37.629Z,10.50
2022-11-12T19:44:59.472Z,10.35
2022-11-12T19:50:24.655Z,10.40
2022-11-12T19:55:46.784Z,10.47
2022-11-12T20:01:10.873Z,10.41
2022-11-12T20:06:32.688Z,10.41
2022-11-12T20:11:54.490Z,10.56
2022-11-12T20:17:16.277Z,10.48
2022-11-12T20:22:38.108Z,10.52
2022-11-12T20:27:59.927Z,10.57
2022-11-12T20:33:21.691Z,10.45
2022-11-12T20:38:44.590Z,10.46
2022-11-12T20:44:06.658Z,10.46
2022-11-12T20:49:28.573Z,10.46
2022-11-12T20:54:50.364Z,10.53
2022-11-12T21:00:14.720Z,10.54
2022-11-12T21:05:37.805Z,10.58
2022-11-12T21:11:02.298Z,10.31
2022-11-12T21:16:24.126Z,10.24
2022-11-12T21:21:46.128Z,10.19
2022-11-12T21:27:07.926Z,10.14
2022-11-12T21:32:29.716Z,10.21
2022-11-12T21:37:51.588Z,10.22
2022-11-12T21:43:13.429Z,10.15
2022-11-12T21:48:35.763Z,10.19
2022-11-12T21:54:00.531Z,10.32
2022-11-12T21:59:22.316Z,10.37
2022-11-12T22:04:44.146Z,10.35
2022-11-12T22:10:06.505Z,10.33
2022-11-12T22:15:28.297Z,10.24
2022-11-12T22:21:00.958Z,10.13
2022-11-12T22:26:25.525Z,10.10
2022-11-12T22:31:47.367Z,10.09
2022-11-12T22:37:09.137Z,10.07
2022-11-12T22:42:30.949Z,10.15
2022-11-12T22:47:52.839Z,10.13
2022-11-12T22:53:14.624Z,10.17
2022-11-12T22:58:37.578Z,10.34
2022-11-12T23:04:01.747Z,10.31
2022-11-12T23:09:23.525Z,10.38
2022-11-12T23:14:45.325Z,10.40
2022-11-12T23:20:07.749Z,10.13
2022-11-12T23:25:29.789Z,10.20
2022-11-12T23:30:51.615Z,10.16
2022-11-12T23:36:13.996Z,10.02
2022-11-12T23:41:35.989Z,10.32
2022-11-12T23:46:57.829Z,10.31
2022-11-12T23:52:19.604Z,10.32
2022-11-12T23:57:41.395Z,10.17
